createdAt,value
2023-03-10T00:01:10.230Z,97261.59
2023-03-10T00:05:11.959Z,97263.19
2023-03-10T00:09:14.721Z,97260.75
2023-03-10T00:13:16.132Z,97263.19
2023-03-10T00:17:17.566Z,97255.06
2023-03-10T00:21:22.190Z,97257.25
2023-03-10T00:25:24.963Z,97241.50
2023-03-10T00:29:26.419Z,97245.31
2023-03-10T00:33:29.425Z,97243.41
2023-03-10T00:37:30.879Z,97230.63
2023-03-10T00:41:37.742Z,97230.06
2023-03-10T00:45:39.160Z,97212.59
2023-03-10T00:49:40.656Z,97201.72
2023-03-10T00:53:42.775Z,97197.34
2023-03-10T00:57:45.542Z,97189.16
2023-03-10T01:01:47.067Z,97173.41
2023-03-10T01:05:48.543Z,97172.00
2023-03-10T01:09:50.001Z,97171.19
2023-03-10T01:13:53.644Z,97167.38
2023-03-10T01:17:55.067Z,97151.63
2023-03-10T01:21:56.556Z,97141.81
2023-03-10T01:25:58.101Z,97139.09
2023-03-10T01:30:00.896Z,97129.00
2023-03-10T01:34:02.512Z,97123.78
2023-03-10T01:38:05.244Z,97109.06
2023-03-10T01:42:06.742Z,97099.59
2023-03-10T01:46:34.311Z,97091.16
2023-03-10T01:50:35.987Z,97086.22
2023-03-10T01:54:44.030Z,97076.94
2023-03-10T01:58:46.981Z,97076.94
2023-03-10T02:02:55.642Z,97073.63
2023-03-10T02:06:57.960Z,97070.31
2023-03-10T02:11:01.187Z,97066.06
2023-03-10T02:15:02.996Z,97063.41
2023-03-10T02:19:12.235Z,97044.34
2023-03-10T02:23:17.135Z,97045.09
2023-03-10T02:27:22.270Z,97042.13
2023-03-10T02:31:24.434Z,97037.50
2023-03-10T02:35:25.985Z,97028.97
2023-03-10T02:39:27.452Z,97030.56
2023-03-10T02:43:33.332Z,97026.53
2023-03-10T02:47:34.800Z,97012.66
2023-03-10T02:51:40.562Z,97012.06
2023-03-10T02:55:42.083Z,97010.69
2023-03-10T02:59:44.873Z,97003.28
2023-03-10T03:03:46.499Z,97003.91
2023-03-10T03:07:47.994Z,96988.56
2023-03-10T03:11:49.466Z,96973.38
2023-03-10T03:15:52.296Z,96968.03
2023-03-10T03:19:53.810Z,96958.28
2023-03-10T03:23:55.288Z,96956.69
2023-03-10T03:27:57.314Z,96948.53
2023-03-10T03:32:00.199Z,96947.72
2023-03-10T03:36:01.874Z,96941.97
2023-03-10T03:40:04.037Z,96930.75
2023-03-10T03:44:05.559Z,96915.75
2023-03-10T03:48:09.381Z,96911.41
2023-03-10T03:52:10.962Z,96905.97
2023-03-10T03:56:12.450Z,96907.47
2023-03-10T04:00:18.577Z,96902.63
2023-03-10T04:04:21.353Z,96896.28
2023-03-10T04:08:22.892Z,96889.19
2023-03-10T04:12:24.529Z,96881.13
2023-03-10T04:16:26.112Z,96884.06
2023-03-10T04:20:28.966Z,96878.88
2023-03-10T04:24:30.412Z,96874.13
2023-03-10T04:28:31.896Z,96882.00
2023-03-10T04:32:33.544Z,96858.00
2023-03-10T04:36:36.428Z,96849.91
2023-03-10T04:40:37.913Z,96850.38
2023-03-10T04:44:39.406Z,96847.69
2023-03-10T04:48:40.944Z,96848.84
2023-03-10T04:52:44.315Z,96845.72
2023-03-10T04:56:45.777Z,96850.38
2023-03-10T05:01:02.140Z,96853.59
2023-03-10T05:05:04.712Z,96844.31
2023-03-10T05:09:07.591Z,96847.00
2023-03-10T05:13:09.117Z,96856.25
2023-03-10T05:17:10.704Z,96849.63
2023-03-10T05:21:12.961Z,96842.03
2023-03-10T05:25:15.739Z,96843.16
2023-03-10T05:29:17.270Z,96840.88
2023-03-10T05:33:18.737Z,96839.06
2023-03-10T05:37:20.351Z,96827.56
2023-03-10T05:41:23.243Z,96829.41
2023-03-10T05:45:24.926Z,96821.50
2023-03-10T05:49:26.628Z,96831.38
2023-03-10T05:53:28.343Z,96831.09
2023-03-10T05:57:31.182Z,96834.25
2023-03-10T06:01:32.985Z,96839.50
2023-03-10T06:05:34.428Z,96833.75
2023-03-10T06:09:35.911Z,96832.66
2023-03-10T06:13:38.773Z,96829.56
2023-03-10T06:17:40.239Z,96826.38
2023-03-10T06:21:41.706Z,96818.13
2023-03-10T06:25:43.218Z,96829.31
2023-03-10T06:29:46.006Z,96835.13
2023-03-10T06:33:47.739Z,96829.31
2023-03-10T06:37:49.209Z,96819.22
2023-03-10T06:41:50.697Z,96818.91
2023-03-10T06:45:53.639Z,96820.47
2023-03-10T06:49:55.300Z,96813.28
2023-03-10T06:53:56.765Z,96818.69
2023-03-10T06:57:58.236Z,96815.19
2023-03-10T07:02:01.023Z,96811.25
2023-03-10T07:06:02.516Z,96817.75
2023-03-10T07:10:07.762Z,96818.69
2023-03-10T07:14:09.735Z,96823.75
2023-03-10T07:18:13.163Z,96831.47
2023-03-10T07:22:14.695Z,96824.91
2023-03-10T07:26:17.294Z,96829.25
2023-03-10T07:30:19.078Z,96840.56
2023-03-10T07:34:21.879Z,96841.38
2023-03-10T07:38:23.460Z,96843.91
2023-03-10T07:42:27.955Z,96834.72
2023-03-10T07:46:30.172Z,96840.66
2023-03-10T07:50:33.726Z,96834.00
2023-03-10T07:54:35.787Z,96840.91
2023-03-10T07:58:38.056Z,96834.63
2023-03-10T08:02:40.898Z,96839.31
2023-03-10T08:06:45.213Z,96840.91
2023-03-10T08:10:46.856Z,96852.03
2023-03-10T08:14:48.725Z,96840.88
2023-03-10T08:18:50.842Z,96840.47
2023-03-10T08:22:53.968Z,96850.34
2023-03-10T08:26:55.474Z,96859.09
2023-03-10T08:31:04.859Z,96852.69
2023-03-10T08:35:08.273Z,96845.56
2023-03-10T08:39:12.438Z,96844.94
2023-03-10T08:43:14.054Z,96837.97
2023-03-10T08:47:15.756Z,96842.22
2023-03-10T08:51:18.546Z,96824.69
2023-03-10T08:55:21.514Z,96817.38
2023-03-10T08:59:23.131Z,96816.22
2023-03-10T09:03:24.971Z,96809.72
2023-03-10T09:07:26.552Z,96810.59
2023-03-10T09:11:31.636Z,96797.03
2023-03-10T09:15:33.766Z,96787.31
2023-03-10T09:19:35.307Z,96794.63
2023-03-10T09:23:37.411Z,96809.16
2023-03-10T09:27:40.329Z,96813.19
2023-03-10T09:31:42.151Z,96810.94
2023-03-10T09:35:52.440Z,96805.94
2023-03-10T09:39:54.612Z,96818.66
2023-03-10T09:44:02.540Z,96816.25
2023-03-10T09:48:12.626Z,96819.47
2023-03-10T09:52:21.076Z,96817.81
2023-03-10T09:56:29.715Z,96817.03
2023-03-10T10:00:37.845Z,96816.25
2023-03-10T10:04:41.602Z,96820.94
2023-03-10T10:08:54.902Z,96824.66
2023-03-10T10:13:13.678Z,96817.38
2023-03-10T10:17:28.920Z,96813.69
2023-03-10T10:21:42.619Z,96819.25
2023-03-10T10:25:44.565Z,96822.88
2023-03-10T10:29:46.000Z,96832.94
2023-03-10T10:33:57.911Z,96831.63
2023-03-10T10:38:01.719Z,96834.53
2023-03-10T10:42:14.061Z,96843.94
2023-03-10T10:46:23.023Z,96842.31
2023-03-10T10:50:28.316Z,96826.19
2023-03-10T10:54:36.759Z,96829.03
2023-03-10T10:58:39.889Z,96843.16
2023-03-10T11:02:41.392Z,96836.88
2023-03-10T11:06:44.682Z,96831.69
2023-03-10T11:10:55.001Z,96828.09
2023-03-10T11:15:09.308Z,96822.50
2023-03-10T11:19:21.727Z,96823.16
2023-03-10T11:23:31.059Z,96810.56
2023-03-10T11:27:46.240Z,96804.59
2023-03-10T11:31:55.038Z,96803.09
2023-03-10T11:36:09.913Z,96795.53
2023-03-10T11:40:19.391Z,96804.47
2023-03-10T11:44:27.978Z,96803.69
2023-03-10T11:48:48.988Z,96794.75
2023-03-10T11:52:54.189Z,96787.28
2023-03-10T11:56:58.218Z,96779.50
2023-03-10T12:01:00.567Z,96775.13
2023-03-10T12:05:07.818Z,96766.81
2023-03-10T12:09:18.199Z,96758.13
2023-03-10T12:13:25.365Z,96774.44
2023-03-10T12:17:27.497Z,96767.41
2023-03-10T12:21:30.951Z,96755.16
2023-03-10T12:25:44.037Z,96758.66
2023-03-10T12:29:47.256Z,96761.25
2023-03-10T12:33:52.714Z,96757.22
2023-03-10T12:38:27.382Z,96759.22
2023-03-10T12:42:32.116Z,96746.59
2023-03-10T12:46:47.835Z,96751.84
2023-03-10T12:50:54.566Z,96744.25
2023-03-10T12:55:05.382Z,96756.13
2023-03-10T12:59:16.936Z,96752.97
2023-03-10T13:03:27.403Z,96745.06
2023-03-10T13:07:30.155Z,96739.22
2023-03-10T13:11:36.394Z,96733.28
2023-03-10T13:15:37.817Z,96717.53
2023-03-10T13:19:40.577Z,96714.13
2023-03-10T13:23:43.321Z,96701.22
2023-03-10T13:27:44.760Z,96698.88
2023-03-10T13:31:53.051Z,96678.13
2023-03-10T13:35:56.304Z,96689.03
2023-03-10T13:40:07.446Z,96689.47
2023-03-10T13:44:17.143Z,96681.47
2023-03-10T13:48:19.208Z,96684.28
2023-03-10T13:52:24.046Z,96679.06
2023-03-10T13:56:28.125Z,96684.03
2023-03-10T14:00:29.656Z,96675.13
2023-03-10T14:04:46.775Z,96668.97
2023-03-10T14:08:50.335Z,96662.38
2023-03-10T14:12:53.649Z,96662.00
2023-03-10T14:16:56.967Z,96665.13
2023-03-10T14:21:40.964Z,96662.75
2023-03-10T14:25:50.887Z,96680.38
2023-03-10T14:29:54.361Z,96717.72
2023-03-10T14:33:56.316Z,96760.66
2023-03-10T14:37:57.772Z,96762.25
2023-03-10T14:42:00.835Z,96742.78
2023-03-10T14:46:02.609Z,96740.53
2023-03-10T14:50:04.656Z,96748.75
2023-03-10T14:54:15.770Z,96748.25
2023-03-10T14:58:20.921Z,96739.88
2023-03-10T15:02:25.209Z,96750.44
2023-03-10T15:06:30.126Z,96742.28
2023-03-10T15:10:36.081Z,96738.09
2023-03-10T15:14:38.918Z,96739.00
2023-03-10T15:18:40.416Z,96740.34
2023-03-10T15:22:42.280Z,96728.97
2023-03-10T15:26:43.815Z,96726.63
2023-03-10T15:30:46.832Z,96718.34
2023-03-10T15:34:48.327Z,96709.47
2023-03-10T15:38:49.850Z,96710.66
2023-03-10T15:42:52.409Z,96720.06
2023-03-10T15:46:55.337Z,96718.75
2023-03-10T15:50:56.924Z,96706.13
2023-03-10T15:54:58.357Z,96702.56
2023-03-10T15:58:59.816Z,96697.94
2023-03-10T16:03:02.680Z,96703.19
2023-03-10T16:07:04.799Z,96689.66
2023-03-10T16:11:08.169Z,96693.91
2023-03-10T16:15:11.007Z,96700.38
2023-03-10T16:19:14.002Z,96698.47
2023-03-10T16:23:15.540Z,96696.97
2023-03-10T16:27:16.991Z,96697.72
2023-03-10T16:31:20.525Z,96693.56
2023-03-10T16:35:23.320Z,96705.94
2023-03-10T16:39:24.986Z,96697.66
2023-03-10T16:43:28.695Z,96704.75
2023-03-10T16:47:30.188Z,96702.00
2023-03-10T16:51:35.309Z,96702.50
2023-03-10T16:55:37.588Z,96698.59
2023-03-10T16:59:39.361Z,96693.28
2023-03-10T17:03:41.201Z,96695.09
2023-03-10T17:07:55.016Z,96702.09
2023-03-10T17:11:57.222Z,96694.44
2023-03-10T17:15:58.746Z,96706.78
2023-03-10T17:20:00.245Z,96704.97
2023-03-10T17:24:03.721Z,96694.91
2023-03-10T17:28:05.266Z,96704.16
2023-03-10T17:32:06.729Z,96699.88
2023-03-10T17:36:09.851Z,96693.84
2023-03-10T17:40:13.482Z,96705.41
2023-03-10T17:44:15.593Z,96684.59
2023-03-10T17:48:17.132Z,96690.25
2023-03-10T17:52:18.615Z,96692.22
2023-03-10T17:56:21.763Z,96692.66
2023-03-10T18:00:24.188Z,96688.25
2023-03-10T18:04:25.673Z,96694.34
2023-03-10T18:08:27.123Z,96685.59
2023-03-10T18:12:30.232Z,96679.56
2023-03-10T18:16:33.834Z,96678.06
2023-03-10T18:20:35.279Z,96670.41
2023-03-10T18:24:38.090Z,96666.63
2023-03-10T18:28:41.568Z,96659.09
2023-03-10T18:32:43.322Z,96649.44
2023-03-10T18:36:44.959Z,96659.38
2023-03-10T18:40:46.870Z,96653.91
2023-03-10T18:44:49.747Z,96653.09
2023-03-10T18:48:51.292Z,96645.72
2023-03-10T18:52:52.835Z,96651.75
2023-03-10T18:56:54.346Z,96648.53
2023-03-10T19:00:57.447Z,96649.47
2023-03-10T19:04:59.096Z,96643.34
2023-03-10T19:09:01.335Z,96640.63
2023-03-10T19:13:03.330Z,96637.91
2023-03-10T19:17:06.291Z,96642.91
2023-03-10T19:21:07.945Z,96639.44
2023-03-10T19:25:11.553Z,96636.69
2023-03-10T19:29:13.080Z,96632.31
2023-03-10T19:33:16.026Z,96628.53
2023-03-10T19:37:17.733Z,96628.22
2023-03-10T19:41:19.881Z,96626.25
2023-03-10T19:45:21.661Z,96627.50
2023-03-10T19:49:24.702Z,96618.84
2023-03-10T19:53:27.987Z,96613.66
2023-03-10T19:57:29.570Z,96614.75
2023-03-10T20:01:31.036Z,96611.44
2023-03-10T20:05:33.932Z,96604.63
2023-03-10T20:09:35.655Z,96612.28
2023-03-10T20:13:37.331Z,96612.47
2023-03-10T20:17:39.141Z,96615.50
2023-03-10T20:21:42.096Z,96616.16
2023-03-10T20:25:44.605Z,96614.28
2023-03-10T20:29:46.090Z,96620.72
2023-03-10T20:33:51.086Z,96633.22
2023-03-10T20:37:54.113Z,96644.09
2023-03-10T20:41:55.619Z,96629.41
2023-03-10T20:45:57.166Z,96636.16
2023-03-10T20:49:58.868Z,96631.00
2023-03-10T20:54:01.735Z,96641.19
2023-03-10T20:58:03.219Z,96639.69
2023-03-10T21:02:04.884Z,96632.88
2023-03-10T21:06:06.696Z,96644.56
2023-03-10T21:10:11.833Z,96643.34
2023-03-10T21:14:13.386Z,96649.72
2023-03-10T21:18:14.864Z,96659.03
2023-03-10T21:22:16.453Z,96660.44
2023-03-10T21:26:20.805Z,96649.41
2023-03-10T21:30:22.303Z,96659.25
2023-03-10T21:34:23.760Z,96653.84
2023-03-10T21:38:25.290Z,96644.59
2023-03-10T21:42:28.119Z,96650.63
2023-03-10T21:46:30.084Z,96662.63
2023-03-10T21:50:32.108Z,96663.22
2023-03-10T21:54:33.626Z,96662.44
2023-03-10T21:58:36.990Z,96651.84
2023-03-10T22:02:38.473Z,96650.47
2023-03-10T22:06:39.973Z,96656.47
2023-03-10T22:10:41.491Z,96645.84
2023-03-10T22:14:44.301Z,96657.56
2023-03-10T22:18:46.203Z,96654.59
2023-03-10T22:22:48.081Z,96657.88
2023-03-10T22:26:49.561Z,96660.41
2023-03-10T22:30:52.457Z,96665.34
2023-03-10T22:34:53.983Z,96669.75
2023-03-10T22:38:55.500Z,96671.72
2023-03-10T22:42:57.209Z,96658.75
2023-03-10T22:47:00.024Z,96668.50
2023-03-10T22:51:06.325Z,96669.63
2023-03-10T22:55:10.207Z,96670.19
2023-03-10T22:59:11.631Z,96685.13
2023-03-10T23:03:14.519Z,96664.81
2023-03-10T23:07:16.003Z,96668.13
2023-03-10T23:11:17.620Z,96674.63
2023-03-10T23:15:25.367Z,96684.91
2023-03-10T23:19:28.524Z,96688.75
2023-03-10T23:23:29.976Z,96695.25
2023-03-10T23:27:31.491Z,96698.53
2023-03-10T23:31:33.000Z,96707.25
2023-03-10T23:35:36.213Z,96785.84
2023-03-10T23:39:37.712Z,96786.13
2023-03-10T23:43:39.326Z,96818.09
2023-03-10T23:47:41.506Z,96812.47
2023-03-10T23:51:44.477Z,96847.72
2023-03-10T23:55:46.767Z,96830.19
2023-03-10T23:59:48.338Z,96852.75
